Time;durP1;ratioP1;P1;durP2;ratioP2;P2;SDS_P1;SDS_P2;PMS_P1;PMS_P2;Temp;Humidity;BMP_temperature;BMP_pressure;BME280_temperature;BME280_humidity;BME280_pressure;Samples;Min_cycle;Max_cycle;Signal;HPM_P1;HPM_P2
2023/08/23 00:04:38;;;;;;;6.38;1.10;;;;;;;19.06;100.00;98699.38;15273551;19;20025;-76
2023/08/23 00:10:03;;;;;;;2.63;1.00;;;;;;;18.95;100.00;98703.59;15278949;19;20027;-75
2023/08/23 00:15:31;;;;;;;2.42;1.00;;;;;;;18.90;100.00;98697.88;15283546;19;20021;-77
2023/08/23 00:20:57;;;;;;;3.05;1.10;;;;;;;18.82;100.00;98704.38;15279279;19;20013;-75
2023/08/23 00:26:22;;;;;;;2.97;0.98;;;;;;;18.76;100.00;98706.03;15270876;19;20131;-75
2023/08/23 00:31:49;;;;;;;2.15;0.90;;;;;;;18.72;100.00;98696.59;15281181;19;20054;-75
2023/08/23 00:37:15;;;;;;;3.05;1.00;;;;;;;18.67;100.00;98698.28;15279193;19;20018;-74
2023/08/23 00:42:41;;;;;;;4.20;0.90;;;;;;;18.63;100.00;98695.13;15277725;19;20047;-76
2023/08/23 00:48:12;;;;;;;2.97;0.98;;;;;;;18.58;100.00;98698.44;15281900;19;20022;-75
2023/08/23 00:53:41;;;;;;;3.08;1.02;;;;;;;18.56;100.00;98694.25;15316805;19;20010;-75
2023/08/23 00:59:10;;;;;;;5.45;1.00;;;;;;;18.54;100.00;98696.34;15277578;19;20011;-75
2023/08/23 01:04:45;;;;;;;3.80;0.88;;;;;;;18.51;100.00;98703.06;15275947;19;20006;-76
2023/08/23 01:10:15;;;;;;;2.10;0.90;;;;;;;18.48;100.00;98696.13;15289767;19;20482;-75
2023/08/23 01:15:45;;;;;;;3.20;1.00;;;;;;;18.42;100.00;98710.59;15283506;19;20014;-76
2023/08/23 01:21:17;;;;;;;3.08;1.10;;;;;;;18.40;100.00;98706.38;15290471;19;20021;-75
2023/08/23 01:26:48;;;;;;;3.90;0.90;;;;;;;18.32;100.00;98716.44;15283922;19;20011;-76
2023/08/23 01:32:33;;;;;;;3.53;1.02;;;;;;;18.26;100.00;98705.50;15281380;19;20399;-77
2023/08/23 01:38:01;;;;;;;2.03;1.00;;;;;;;18.21;100.00;98713.44;15291190;19;20089;-76
2023/08/23 01:43:29;;;;;;;3.95;0.80;;;;;;;18.14;100.00;98697.91;15294218;19;20086;-73
2023/08/23 01:48:55;;;;;;;2.40;0.98;;;;;;;18.07;100.00;98701.66;15301150;19;20069;-77
2023/08/23 01:54:21;;;;;;;3.88;1.00;;;;;;;18.01;100.00;98703.31;15281364;19;20015;-75
2023/08/23 01:59:50;;;;;;;5.28;1.05;;;;;;;17.95;100.00;98704.06;15288393;19;20046;-76
2023/08/23 02:05:40;;;;;;;3.40;1.10;;;;;;;17.87;100.00;98707.84;15280788;19;20567;-76
2023/08/23 02:11:05;;;;;;;4.15;0.93;;;;;;;17.79;100.00;98713.44;15281821;19;20123;-74
2023/08/23 02:16:32;;;;;;;2.08;0.90;;;;;;;17.73;100.00;98712.34;15273607;19;20126;-76
2023/08/23 02:22:00;;;;;;;3.08;1.00;;;;;;;17.67;100.00;98697.66;15280629;19;20018;-74
2023/08/23 02:27:25;;;;;;;2.25;0.80;;;;;;;17.62;100.00;98699.28;15276366;19;20019;-77
2023/08/23 02:32:52;;;;;;;3.13;1.00;;;;;;;17.55;100.00;98704.69;15307874;19;20010;-73
2023/08/23 02:38:20;;;;;;;2.55;0.90;;;;;;;17.49;100.00;98709.06;15306462;19;20014;-72
2023/08/23 02:43:47;;;;;;;4.40;1.20;;;;;;;17.43;100.00;98715.31;15282036;19;20013;-77
2023/08/23 02:49:14;;;;;;;5.88;1.05;;;;;;;17.38;100.00;98717.78;15280458;19;20023;-75
2023/08/23 02:54:40;;;;;;;3.60;1.13;;;;;;;17.30;100.00;98709.78;15279987;19;20019;-76
2023/08/23 03:00:06;;;;;;;4.47;1.40;;;;;;;17.23;100.00;98713.25;15277720;19;20029;-75
2023/08/23 03:05:34;;;;;;;3.80;1.08;;;;;;;17.18;100.00;98713.03;15274248;19;20006;-75
2023/08/23 03:11:05;;;;;;;1.88;0.80;;;;;;;17.09;100.00;98711.50;15278801;19;20078;-74
2023/08/23 03:16:31;;;;;;;1.92;0.90;;;;;;;17.03;100.00;98704.09;15270561;19;20019;-73
2023/08/23 03:22:00;;;;;;;3.65;1.20;;;;;;;16.99;100.00;98709.09;15273733;19;20010;-74
2023/08/23 03:27:27;;;;;;;4.63;1.33;;;;;;;16.93;100.00;98718.84;15270680;19;20466;-75
2023/08/23 03:32:53;;;;;;;4.47;1.23;;;;;;;16.90;100.00;98712.97;15274151;19;20517;-77
2023/08/23 03:38:22;;;;;;;3.13;1.10;;;;;;;16.86;100.00;98717.09;15275208;19;20021;-76
2023/08/23 03:43:47;;;;;;;5.38;1.20;;;;;;;16.78;100.00;98715.34;15275412;19;20038;-76
2023/08/23 03:49:12;;;;;;;2.00;1.05;;;;;;;16.71;100.00;98726.16;15269315;19;20095;-77
2023/08/23 03:54:39;;;;;;;3.65;1.00;;;;;;;16.68;100.00;98733.88;15282491;19;20427;-75
2023/08/23 04:00:04;;;;;;;6.53;1.52;;;;;;;16.58;100.00;98726.88;15272870;19;20024;-76
2023/08/23 04:05:30;;;;;;;6.35;1.52;;;;;;;16.52;100.00;98730.38;15269325;19;20027;-73
2023/08/23 04:11:04;;;;;;;4.45;1.50;;;;;;;16.48;100.00;98731.78;15265318;19;20011;-76
2023/08/23 04:16:32;;;;;;;4.63;1.20;;;;;;;16.42;100.00;98751.56;15278941;19;20022;-74
2023/08/23 04:21:58;;;;;;;2.25;1.38;;;;;;;16.37;100.00;98754.88;15277866;19;20027;-76
2023/08/23 04:27:25;;;;;;;5.05;1.45;;;;;;;16.36;100.00;98749.63;15280131;19;20010;-76
2023/08/23 04:32:51;;;;;;;2.30;1.30;;;;;;;16.32;100.00;98751.91;15276432;19;20031;-73
2023/08/23 04:38:17;;;;;;;4.60;1.50;;;;;;;16.30;100.00;98746.63;15271829;19;20029;-74
2023/08/23 04:43:44;;;;;;;4.70;1.33;;;;;;;16.29;100.00;98744.13;15279272;19;20481;-73
2023/08/23 04:49:02;;;;;;;3.75;1.60;;;;;;;16.27;100.00;98755.19;15321724;19;20024;-77
2023/08/23 04:54:28;;;;;;;2.13;1.27;;;;;;;16.29;100.00;98760.44;15301240;19;20086;-74
2023/08/23 05:00:03;;;;;;;5.68;1.55;;;;;;;16.27;100.00;98776.94;15286930;19;20021;-73
2023/08/23 05:05:28;;;;;;;6.22;1.70;;;;;;;16.27;100.00;98779.66;15281729;19;20038;-75
2023/08/23 05:10:52;;;;;;;4.72;1.55;;;;;;;16.27;100.00;98773.38;15279654;19;20381;-75
2023/08/23 05:16:20;;;;;;;2.97;1.55;;;;;;;16.29;100.00;98783.00;15279312;19;20033;-77
2023/08/23 05:21:46;;;;;;;6.30;1.70;;;;;;;16.32;100.00;98788.06;15285697;19;20427;-77
2023/08/23 05:27:11;;;;;;;4.07;1.60;;;;;;;16.36;100.00;98787.69;15285207;19;20006;-79
2023/08/23 05:32:39;;;;;;;4.38;1.50;;;;;;;16.39;100.00;98793.59;15294119;19;20018;-80
2023/08/23 05:38:04;;;;;;;5.03;1.67;;;;;;;16.47;100.00;98792.66;15296969;19;20497;-79
2023/08/23 05:43:29;;;;;;;8.10;1.55;;;;;;;16.51;100.00;98791.25;15286510;19;20022;-79
2023/08/23 05:48:56;;;;;;;5.20;1.63;;;;;;;16.60;100.00;98794.69;15287709;19;20018;-80
2023/08/23 05:54:22;;;;;;;6.10;1.88;;;;;;;16.64;100.00;98796.81;15291828;19;20002;-77
2023/08/23 05:59:48;;;;;;;6.65;1.65;;;;;;;16.69;100.00;98796.28;15287398;19;20018;-81
2023/08/23 06:05:32;;;;;;;4.60;1.70;;;;;;;16.76;100.00;98793.59;15287271;19;20025;-79
2023/08/23 06:10:58;;;;;;;6.38;1.70;;;;;;;16.83;100.00;98791.81;15293237;19;20007;-79
2023/08/23 06:16:22;;;;;;;4.47;1.48;;;;;;;16.90;100.00;98795.44;15285000;19;20074;-79
2023/08/23 06:21:49;;;;;;;9.77;1.77;;;;;;;17.00;100.00;98783.41;15287387;19;20018;-78
2023/08/23 06:27:14;;;;;;;5.15;1.25;;;;;;;17.07;100.00;98781.63;15286263;19;20043;-81
2023/08/23 06:32:39;;;;;;;5.97;1.33;;;;;;;17.20;100.00;98781.75;15288990;19;20022;-80
2023/08/23 06:38:06;;;;;;;2.38;1.10;;;;;;;17.31;100.00;98783.09;15289268;19;20018;-79
2023/08/23 06:43:31;;;;;;;4.65;1.30;;;;;;;17.43;100.00;98777.09;15287959;19;20047;-78
2023/08/23 06:48:55;;;;;;;6.35;1.27;;;;;;;17.56;100.00;98761.72;15290801;19;20792;-81
2023/08/23 06:54:23;;;;;;;4.85;1.50;;;;;;;17.73;100.00;98772.31;15282909;19;20022;-79
2023/08/23 06:59:48;;;;;;;7.93;1.48;;;;;;;17.89;100.00;98770.31;15287639;19;20022;-80
2023/08/23 07:05:20;;;;;;;5.00;1.42;;;;;;;18.04;100.00;98773.81;15284032;19;20014;-78
2023/08/23 07:10:47;;;;;;;5.80;1.50;;;;;;;18.24;100.00;98768.44;15287966;19;20002;-79
2023/08/23 07:16:13;;;;;;;5.90;1.65;;;;;;;18.39;100.00;98765.56;15292683;19;20015;-78
2023/08/23 07:21:38;;;;;;;5.32;1.30;;;;;;;18.55;100.00;98774.44;15283777;19;20020;-78
2023/08/23 07:27:05;;;;;;;6.05;1.30;;;;;;;18.73;100.00;98766.53;15279383;19;20492;-77
2023/08/23 07:32:32;;;;;;;5.15;1.42;;;;;;;18.94;100.00;98775.63;15284945;19;20018;-80
2023/08/23 07:37:57;;;;;;;4.22;1.38;;;;;;;19.11;100.00;98786.16;15297682;19;20112;-79
2023/08/23 07:43:24;;;;;;;6.60;1.40;;;;;;;19.31;100.00;98772.50;15290323;19;20014;-77
2023/08/23 07:48:50;;;;;;;4.00;1.20;;;;;;;19.52;100.00;98774.19;15287779;19;20014;-79
2023/08/23 07:54:16;;;;;;;4.68;1.10;;;;;;;19.74;100.00;98768.50;15285371;19;20096;-78
2023/08/23 07:59:43;;;;;;;3.05;1.17;;;;;;;19.92;100.00;98773.34;15288612;19;20126;-80
2023/08/23 08:05:15;;;;;;;3.53;1.10;;;;;;;20.07;100.00;98767.63;15281055;19;20018;-81
2023/08/23 08:10:40;;;;;;;3.90;1.10;;;;;;;20.26;100.00;98780.41;15285856;19;20082;-79
2023/08/23 08:16:08;;;;;;;4.10;1.10;;;;;;;20.45;100.00;98764.13;15288240;19;20074;-77
2023/08/23 08:21:33;;;;;;;4.88;1.00;;;;;;;20.65;100.00;98777.72;15334432;19;20021;-79
2023/08/23 08:26:58;;;;;;;3.33;0.82;;;;;;;20.88;100.00;98771.69;15287817;19;20028;-82
2023/08/23 08:32:25;;;;;;;2.20;0.90;;;;;;;21.02;100.00;98777.09;15288606;19;20015;-78
2023/08/23 08:37:50;;;;;;;3.50;1.00;;;;;;;21.20;100.00;98779.94;15288835;19;20082;-78
2023/08/23 08:43:16;;;;;;;3.03;1.00;;;;;;;21.41;100.00;98769.66;15289608;19;20593;-80
2023/08/23 08:48:45;;;;;;;4.57;0.90;;;;;;;21.59;100.00;98759.78;15305368;19;20524;-79
2023/08/23 08:54:12;;;;;;;3.30;0.80;;;;;;;21.72;100.00;98742.44;15322311;19;20011;-78
2023/08/23 08:59:37;;;;;;;1.88;0.80;;;;;;;21.87;100.00;98753.88;15273334;19;20018;-79
2023/08/23 09:05:06;;;;;;;1.90;0.73;;;;;;;22.04;100.00;98751.38;15275710;19;20015;-78
2023/08/23 09:10:33;;;;;;;2.85;0.90;;;;;;;22.17;100.00;98753.94;15276850;19;20029;-78
2023/08/23 09:16:01;;;;;;;4.80;0.75;;;;;;;22.39;100.00;98755.38;15275659;19;20010;-78
2023/08/23 09:21:28;;;;;;;2.08;0.80;;;;;;;22.47;100.00;98753.19;15279720;19;20035;-79
2023/08/23 09:26:53;;;;;;;1.90;0.80;;;;;;;22.56;100.00;98753.72;15280274;19;20071;-78
2023/08/23 09:32:17;;;;;;;6.78;0.90;;;;;;;22.71;100.00;98749.72;15287798;19;20312;-79
2023/08/23 09:37:46;;;;;;;4.22;0.90;;;;;;;22.85;100.00;98755.88;15287258;19;20600;-79
2023/08/23 09:43:11;;;;;;;3.08;0.80;;;;;;;22.96;100.00;98746.84;15289092;19;20014;-81
2023/08/23 09:48:38;;;;;;;2.33;0.90;;;;;;;22.99;100.00;98740.84;15286850;19;20010;-78
2023/08/23 09:54:13;;;;;;;2.78;0.90;;;;;;;23.15;100.00;98755.84;15297476;19;20357;-80
2023/08/23 09:59:59;;;;;;;3.53;1.20;;;;;;;23.25;100.00;98760.78;15295994;19;20014;-79
2023/08/23 10:05:31;;;;;;;5.13;1.00;;;;;;;23.34;100.00;98755.78;15280000;19;20014;-78
2023/08/23 10:11:00;;;;;;;2.30;0.90;;;;;;;23.53;100.00;98751.03;15293857;19;20014;-78
2023/08/23 10:16:29;;;;;;;;;;;;;;;23.47;100.00;98735.47;15284434;19;20010;-80
2023/08/23 10:21:54;;;;;;;5.35;1.20;;;;;;;23.50;100.00;98740.50;15289824;19;19925;-79
2023/08/23 10:27:21;;;;;;;3.50;1.20;;;;;;;23.58;100.00;98733.81;14787469;19;10000002;-80
2023/08/23 10:32:46;;;;;;;1.98;0.93;;;;;;;23.82;100.00;98732.72;15293078;19;20007;-78
2023/08/23 10:38:13;;;;;;;2.80;0.80;;;;;;;24.05;100.00;98724.72;15287371;19;20017;-80
2023/08/23 10:43:45;;;;;;;2.85;0.90;;;;;;;24.21;100.00;98717.63;15288546;19;20022;-81
2023/08/23 10:49:11;;;;;;;7.93;1.00;;;;;;;24.30;100.00;98716.97;15290736;19;20406;-78
2023/08/23 10:54:43;;;;;;;3.75;0.90;;;;;;;24.47;100.00;98724.47;15291663;19;20081;-79
2023/08/23 11:00:12;;;;;;;3.10;1.00;;;;;;;24.65;100.00;98712.44;15293532;19;20489;-78
2023/08/23 11:05:45;;;;;;;1.63;0.80;;;;;;;24.77;100.00;98716.00;15283051;19;20014;-77
2023/08/23 11:11:10;;;;;;;1.60;0.70;;;;;;;24.98;100.00;98716.34;15286529;19;20039;-78
2023/08/23 11:16:38;;;;;;;4.03;0.65;;;;;;;25.10;100.00;98713.53;15289370;19;20039;-79
2023/08/23 11:22:04;;;;;;;2.38;1.00;;;;;;;25.04;100.00;98704.34;15298244;19;20040;-78
2023/08/23 11:27:28;;;;;;;1.35;0.70;;;;;;;24.97;97.43;98700.09;15291844;19;20011;-79
2023/08/23 11:32:59;;;;;;;2.72;0.90;;;;;;;24.98;98.91;98688.78;15288426;19;20018;-77
2023/08/23 11:38:24;;;;;;;3.93;0.80;;;;;;;25.29;100.00;98693.97;15294120;19;20025;-78
2023/08/23 11:43:51;;;;;;;6.00;0.90;;;;;;;25.35;100.00;98682.78;15283201;19;20018;-80
2023/08/23 11:49:18;;;;;;;3.92;0.73;;;;;;;25.49;93.73;98683.28;15286302;19;20472;-80
2023/08/23 11:54:46;;;;;;;2.95;0.82;;;;;;;25.55;100.00;98681.44;15287002;19;20430;-80
2023/08/23 12:00:12;;;;;;;2.55;0.82;;;;;;;25.65;98.90;98686.28;15280458;19;20055;-79
2023/08/23 12:05:46;;;;;;;3.35;0.75;;;;;;;25.64;97.58;98685.44;15280814;19;20023;-81
2023/08/23 12:11:11;;;;;;;2.30;0.80;;;;;;;25.69;93.99;98679.19;15277347;19;20022;-79
2023/08/23 12:16:36;;;;;;;2.33;0.70;;;;;;;25.80;97.52;98669.09;15273891;19;20074;-80
2023/08/23 12:22:04;;;;;;;4.75;1.00;;;;;;;25.93;95.62;98665.97;15281923;19;20050;-81
2023/08/23 12:27:28;;;;;;;3.65;0.80;;;;;;;25.93;94.14;98665.97;15284714;19;20013;-81
2023/08/23 12:32:53;;;;;;;3.25;0.80;;;;;;;26.03;89.88;98669.94;15278884;19;20011;-80
2023/08/23 12:38:22;;;;;;;6.60;0.85;;;;;;;26.04;80.76;98666.94;15281713;19;20010;-79
2023/08/23 12:43:48;;;;;;;1.43;0.70;;;;;;;26.28;83.23;98666.72;15275515;19;20011;-81
2023/08/23 12:49:14;;;;;;;7.47;0.90;;;;;;;26.40;83.09;98664.59;15272805;19;20094;-80
2023/08/23 12:54:43;;;;;;;3.60;0.70;;;;;;;26.45;79.75;98670.19;15278369;19;20010;-80
2023/08/23 13:00:10;;;;;;;3.38;0.70;;;;;;;26.37;81.71;98664.28;15287132;19;20022;-81
2023/08/23 13:11:17;;;;;;;1.70;0.85;;;;;;;26.67;74.92;98669.31;15349747;19;20015;-80
2023/08/23 13:16:41;;;;;;;3.15;0.80;;;;;;;26.92;75.96;98651.34;15278369;19;20877;-78
2023/08/23 13:22:07;;;;;;;2.53;0.80;;;;;;;27.14;73.00;98650.41;15284028;19;20039;-78
2023/08/23 13:27:35;;;;;;;4.72;0.90;;;;;;;27.11;70.40;98660.06;15289542;19;20045;-79
2023/08/23 13:33:00;;;;;;;3.40;0.90;;;;;;;27.11;71.24;98668.34;15286894;19;20010;-81
2023/08/23 13:38:24;;;;;;;1.48;0.77;;;;;;;27.05;70.79;98652.81;15288747;19;20010;-80
2023/08/23 13:43:52;;;;;;;3.88;0.73;;;;;;;27.00;69.40;98638.97;15288275;19;20036;-80
2023/08/23 13:49:16;;;;;;;4.68;0.80;;;;;;;27.21;69.59;98639.97;15281438;19;20006;-80
2023/08/23 13:54:41;;;;;;;3.75;0.80;;;;;;;27.25;66.63;98629.19;15287115;19;20011;-81
2023/08/23 14:00:11;;;;;;;1.35;0.70;;;;;;;27.49;68.07;98622.19;15297701;19;20027;-81
2023/08/23 14:05:36;;;;;;;3.92;0.70;;;;;;;27.66;67.97;98610.09;15294959;19;20038;-81
2023/08/23 14:11:01;;;;;;;1.65;0.68;;;;;;;27.75;66.75;98622.31;15290380;19;20334;-80
2023/08/23 14:16:30;;;;;;;2.63;0.80;;;;;;;27.80;63.23;98621.50;15285115;19;20039;-81
2023/08/23 14:21:55;;;;;;;2.72;0.63;;;;;;;27.84;64.10;98615.16;15283876;19;20090;-80
2023/08/23 14:27:20;;;;;;;3.40;0.70;;;;;;;28.01;62.88;98616.88;15285760;19;20014;-80
2023/08/23 14:32:56;;;;;;;3.85;0.70;;;;;;;27.91;60.91;98617.69;15291048;19;20078;-81
2023/08/23 14:38:21;;;;;;;4.07;0.88;;;;;;;27.88;59.40;98614.59;15290090;19;20077;-79
2023/08/23 14:43:46;;;;;;;2.50;0.77;;;;;;;28.39;61.87;98619.53;15286336;19;20005;-82
2023/08/23 14:49:14;;;;;;;3.53;0.70;;;;;;;28.27;58.41;98612.28;15277168;19;20022;-81
2023/08/23 14:54:38;;;;;;;2.25;0.68;;;;;;;28.54;60.16;98596.53;15280963;19;20022;-82
2023/08/23 15:00:04;;;;;;;2.42;0.70;;;;;;;28.69;56.05;98592.94;15286819;19;20036;-80
2023/08/23 15:05:38;;;;;;;2.13;0.60;;;;;;;28.37;56.95;98596.78;15289398;19;20018;-81
2023/08/23 15:11:03;;;;;;;2.72;0.70;;;;;;;28.31;56.60;98601.50;15280978;19;20022;-81
2023/08/23 15:16:27;;;;;;;2.33;0.63;;;;;;;28.76;58.25;98599.06;15282509;19;20047;-79
2023/08/23 15:21:55;;;;;;;1.63;0.68;;;;;;;28.64;55.01;98598.47;15280350;19;20014;-80
2023/08/23 15:27:21;;;;;;;2.53;0.63;;;;;;;28.58;55.61;98609.56;15283111;19;20014;-80
2023/08/23 15:33:04;;;;;;;2.38;0.82;;;;;;;28.75;54.54;98605.75;15291599;19;20014;-80
2023/08/23 15:38:32;;;;;;;2.47;0.70;;;;;;;28.62;54.29;98611.78;15290962;19;20378;-80
2023/08/23 15:43:57;;;;;;;5.57;0.60;;;;;;;28.25;52.30;98614.50;15280695;19;20482;-81
2023/08/23 15:49:22;;;;;;;1.60;0.60;;;;;;;27.76;52.59;98609.31;15282248;19;20023;-81
2023/08/23 15:54:51;;;;;;;1.50;0.60;;;;;;;27.91;54.67;98598.31;15277578;19;20357;-81
2023/08/23 16:00:17;;;;;;;3.20;0.60;;;;;;;28.03;54.01;98605.53;15295480;19;20026;-82
2023/08/23 16:05:48;;;;;;;1.55;0.50;;;;;;;28.07;54.35;98598.34;15278348;19;20030;-81
2023/08/23 16:11:17;;;;;;;2.83;0.60;;;;;;;28.07;53.89;98606.63;15278261;19;20325;-83
2023/08/23 16:16:45;;;;;;;4.63;0.70;;;;;;;28.19;54.07;98604.50;15277002;19;20034;-82
2023/08/23 16:22:10;;;;;;;4.32;0.85;;;;;;;28.08;53.53;98598.13;15281196;19;20035;-82
2023/08/23 16:27:38;;;;;;;1.63;0.70;;;;;;;27.93;53.40;98596.06;15284386;19;20021;-82
2023/08/23 16:33:03;;;;;;;2.72;0.73;;;;;;;27.84;53.26;98590.25;15292811;19;20651;-80
2023/08/23 16:38:28;;;;;;;4.97;0.70;;;;;;;27.67;53.79;98600.69;15315080;19;20017;-82
2023/08/23 16:43:59;;;;;;;1.45;0.77;;;;;;;27.15;53.29;98597.59;15306874;19;20029;-80
2023/08/23 16:49:40;;;;;;;5.22;0.70;;;;;;;27.17;55.10;98586.25;15317495;19;19994;-82
2023/08/23 16:55:09;;;;;;;1.25;0.60;;;;;;;27.15;54.21;98594.84;15320419;19;20414;-81
2023/08/23 17:00:44;;;;;;;1.58;0.70;;;;;;;27.20;55.29;98592.09;15313037;19;20018;-81
2023/08/23 17:11:58;;;;;;;3.97;0.80;;;;;;;27.00;55.50;98578.94;15315249;19;20007;-79
2023/08/23 17:17:36;;;;;;;1.90;0.60;;;;;;;26.80;56.33;98584.34;15321795;19;20020;-83
2023/08/23 17:23:02;;;;;;;5.03;0.80;;;;;;;26.90;57.54;98587.16;15309157;19;20010;-81
2023/08/23 17:28:30;;;;;;;3.60;0.88;;;;;;;26.61;57.84;98587.47;15342221;19;19999;-81
2023/08/23 17:33:59;;;;;;;2.45;0.90;;;;;;;26.50;57.80;98591.25;15344180;19;20544;-83
2023/08/23 17:39:26;;;;;;;4.70;0.85;;;;;;;26.30;58.68;98582.50;15297744;19;20039;-80
2023/08/23 17:44:51;;;;;;;1.55;0.70;;;;;;;26.09;59.50;98589.69;15287366;19;20093;-81
2023/08/23 17:50:18;;;;;;;1.88;0.70;;;;;;;25.97;60.01;98600.88;15288663;19;20011;-83
2023/08/23 17:55:43;;;;;;;3.80;0.82;;;;;;;25.83;62.10;98608.69;15267667;19;20014;-80
2023/08/23 18:01:08;;;;;;;1.42;0.52;;;;;;;25.15;66.57;98619.88;15298122;19;20097;-80
2023/08/23 18:06:44;;;;;;;2.40;0.50;;;;;;;24.96;71.42;98619.31;15290398;19;20078;-82
2023/08/23 18:12:09;;;;;;;1.65;0.50;;;;;;;24.44;78.09;98626.66;15293445;19;20031;-81
2023/08/23 18:17:34;;;;;;;1.92;0.77;;;;;;;24.27;81.03;98629.38;15297385;19;20027;-80
2023/08/23 18:23:03;;;;;;;5.97;0.65;;;;;;;23.95;84.75;98624.34;15301194;19;20014;-81
2023/08/23 18:28:27;;;;;;;2.10;0.82;;;;;;;23.72;87.49;98632.63;15304090;19;20054;-81
2023/08/23 18:33:53;;;;;;;0.80;0.43;;;;;;;23.46;91.12;98623.81;15305894;19;20014;-82
2023/08/23 18:39:21;;;;;;;1.15;0.50;;;;;;;23.27;93.01;98631.38;15302532;19;20022;-82
2023/08/23 18:44:46;;;;;;;2.78;0.50;;;;;;;23.17;94.94;98634.66;15303063;19;20019;-83
2023/08/23 18:50:12;;;;;;;2.75;0.60;;;;;;;23.17;93.02;98642.91;15317636;19;20039;-81
2023/08/23 18:55:40;;;;;;;12.48;1.13;;;;;;;23.10;100.00;98651.28;15310359;19;20010;-83
2023/08/23 19:01:05;;;;;;;4.95;0.80;;;;;;;22.98;100.00;98645.78;15292292;19;20516;-78
2023/08/23 19:06:37;;;;;;;44.10;2.55;;;;;;;22.85;100.00;98651.50;15294228;19;20096;-77
2023/08/23 19:12:05;;;;;;;8.23;0.95;;;;;;;22.66;100.00;98648.81;15281079;19;20114;-75
2023/08/23 19:17:30;;;;;;;1.55;0.60;;;;;;;22.46;100.00;98660.09;15234896;19;20026;-76
2023/08/23 19:22:58;;;;;;;2.30;0.55;;;;;;;22.29;100.00;98662.59;15292450;19;20022;-76
2023/08/23 19:28:25;;;;;;;4.85;0.70;;;;;;;22.12;100.00;98671.50;15289543;19;20011;-76
2023/08/23 19:33:50;;;;;;;2.60;0.65;;;;;;;21.97;100.00;98668.28;15286576;19;20015;-77
2023/08/23 19:39:15;;;;;;;1.45;0.52;;;;;;;21.88;100.00;98661.44;15282792;19;20587;-77
2023/08/23 19:44:42;;;;;;;1.80;0.73;;;;;;;21.84;100.00;98669.31;15278084;19;20017;-74
2023/08/23 19:50:07;;;;;;;2.95;0.70;;;;;;;21.79;100.00;98664.50;15282240;19;20015;-76
2023/08/23 19:55:33;;;;;;;1.55;0.80;;;;;;;21.74;100.00;98680.78;15278328;19;20346;-78
2023/08/23 20:01:01;;;;;;;3.75;0.90;;;;;;;21.70;100.00;98685.03;15284829;19;20011;-78
2023/08/23 20:06:33;;;;;;;1.90;0.70;;;;;;;21.55;100.00;98688.13;15276039;19;20015;-75
2023/08/23 20:11:57;;;;;;;1.67;0.60;;;;;;;21.40;100.00;98691.22;15272042;19;20899;-75
2023/08/23 20:17:25;;;;;;;1.27;0.70;;;;;;;21.24;100.00;98698.97;15275612;19;20014;-74
2023/08/23 20:22:49;;;;;;;2.13;0.68;;;;;;;21.10;100.00;98691.94;15282700;19;20778;-77
2023/08/23 20:28:15;;;;;;;3.35;0.73;;;;;;;20.98;100.00;98697.28;15290199;19;20013;-76
2023/08/23 20:33:43;;;;;;;1.63;0.70;;;;;;;20.90;100.00;98692.91;15281491;19;20055;-79
2023/08/23 20:39:08;;;;;;;2.25;0.60;;;;;;;20.80;100.00;98698.03;15280678;19;20404;-76
2023/08/23 20:44:33;;;;;;;1.65;0.70;;;;;;;20.66;100.00;98700.00;15270061;19;20799;-77
2023/08/23 20:50:01;;;;;;;1.00;0.60;;;;;;;20.51;100.00;98700.31;15268993;19;20047;-76
2023/08/23 20:55:25;;;;;;;1.48;0.70;;;;;;;20.37;100.00;98704.16;15277542;19;20032;-75
2023/08/23 21:00:51;;;;;;;1.98;0.80;;;;;;;20.27;100.00;98700.00;15276614;19;20486;-78
2023/08/23 21:06:25;;;;;;;1.92;0.82;;;;;;;20.20;100.00;98704.66;15274723;19;20021;-77
2023/08/23 21:11:49;;;;;;;1.38;0.70;;;;;;;20.13;100.00;98698.38;15274097;19;20078;-76
2023/08/23 21:17:15;;;;;;;2.00;0.70;;;;;;;19.98;100.00;98696.75;15276169;19;20028;-76
2023/08/23 21:22:42;;;;;;;1.77;0.70;;;;;;;19.87;100.00;98705.63;15281406;19;20371;-76
2023/08/23 21:28:08;;;;;;;1.70;0.70;;;;;;;19.75;100.00;98699.09;15293163;19;20017;-76
2023/08/23 21:33:33;;;;;;;2.47;0.90;;;;;;;19.68;100.00;98696.38;15293365;19;20022;-74
2023/08/23 21:39:02;;;;;;;3.25;0.80;;;;;;;19.57;100.00;98703.38;15297317;19;20068;-78
2023/08/23 21:44:27;;;;;;;1.15;0.60;;;;;;;19.47;100.00;98705.66;15319667;19;20015;-75
2023/08/23 21:49:52;;;;;;;1.63;0.77;;;;;;;19.34;100.00;98709.25;15311925;19;20015;-75
2023/08/23 21:55:20;;;;;;;2.38;0.63;;;;;;;19.20;100.00;98702.97;15279520;19;20018;-75
2023/08/23 22:00:45;;;;;;;3.33;0.90;;;;;;;19.08;100.00;98702.75;15285062;19;20007;-74
2023/08/23 22:06:18;;;;;;;2.95;0.80;;;;;;;19.02;100.00;98700.88;15284101;19;20074;-76
2023/08/23 22:11:46;;;;;;;3.95;0.80;;;;;;;18.92;100.00;98693.91;15282964;19;20006;-77
2023/08/23 22:17:11;;;;;;;2.95;0.77;;;;;;;18.83;100.00;98692.41;15282224;19;20019;-75
2023/08/23 22:22:37;;;;;;;2.17;0.70;;;;;;;18.74;100.00;98690.94;15277550;19;20086;-75
2023/08/23 22:28:04;;;;;;;1.15;0.60;;;;;;;18.67;100.00;98684.63;15281428;19;20089;-76
2023/08/23 22:33:28;;;;;;;1.95;0.80;;;;;;;18.62;100.00;98686.09;15284748;19;20016;-76
2023/08/23 22:38:54;;;;;;;3.35;0.80;;;;;;;18.58;100.00;98681.25;15290160;19;20360;-76
2023/08/23 22:44:22;;;;;;;3.03;0.90;;;;;;;18.59;100.00;98677.47;15288040;19;20084;-76
2023/08/23 22:49:47;;;;;;;2.65;1.00;;;;;;;18.55;100.00;98681.66;15286046;19;20373;-75
2023/08/23 22:55:12;;;;;;;1.98;0.80;;;;;;;18.55;100.00;98668.88;15274868;19;20473;-76
2023/08/23 23:00:40;;;;;;;3.38;1.00;;;;;;;18.49;100.00;98675.13;15279604;19;20498;-76
2023/08/23 23:06:15;;;;;;;1.90;0.98;;;;;;;18.38;100.00;98673.88;15279666;19;20017;-76
2023/08/23 23:11:40;;;;;;;3.45;1.10;;;;;;;18.31;100.00;98670.28;15279901;19;20006;-76
2023/08/23 23:17:08;;;;;;;2.28;0.93;;;;;;;18.27;100.00;98669.03;15284866;19;20362;-77
2023/08/23 23:22:32;;;;;;;2.40;1.00;;;;;;;18.27;100.00;98677.19;15283262;19;20025;-76
2023/08/23 23:27:57;;;;;;;2.60;0.90;;;;;;;18.20;100.00;98665.41;15279679;19;20029;-77
2023/08/23 23:33:25;;;;;;;1.48;0.70;;;;;;;18.05;100.00;98662.84;15280076;19;20429;-76
2023/08/23 23:38:50;;;;;;;3.13;0.90;;;;;;;17.95;100.00;98660.47;15283048;19;20094;-76
2023/08/23 23:44:15;;;;;;;3.70;0.90;;;;;;;17.84;100.00;98660.00;15280062;19;20018;-75
2023/08/23 23:49:42;;;;;;;1.65;0.95;;;;;;;17.74;100.00;98656.00;15280969;19;20018;-74
2023/08/23 23:55:08;;;;;;;3.15;0.80;;;;;;;17.64;100.00;98669.97;15279468;19;20020;-76
